Time;durP1;ratioP1;P1;durP2;ratioP2;P2;SDS_P1;SDS_P2;PMS_P1;PMS_P2;Temp;Humidity;BMP_temperature;BMP_pressure;BME280_temperature;BME280_humidity;BME280_pressure;Samples;Min_cycle;Max_cycle;Signal;HPM_P1;HPM_P2
2021/04/13 00:00:23;;;;;;;8.05;7.13;;;;;;;;;;5006075;28;20203;-86
2021/04/13 00:02:50;;;;;;;8.82;7.93;;;;;;;;;;5005973;28;20202;-85
2021/04/13 00:05:28;;;;;;;9.05;7.38;;;;;;;;;;5005291;28;20559;-86
2021/04/13 00:07:55;;;;;;;9.88;8.60;;;;;;;;;;5006466;28;20640;-84
2021/04/13 00:10:25;;;;;;;9.05;8.25;;;;;;;;;;5007053;28;20341;-86
2021/04/13 00:12:52;;;;;;;11.25;8.90;;;;;;;;;;5004726;28;20187;-85
2021/04/13 00:15:23;;;;;;;10.95;8.95;;;;;;;;;;5005616;28;20187;-85
2021/04/13 00:17:49;;;;;;;10.48;9.02;;;;;;;;;;5004254;28;20194;-84
2021/04/13 00:20:21;;;;;;;10.13;9.13;;;;;;;;;;5005953;28;20688;-85
2021/04/13 00:22:47;;;;;;;9.85;8.95;;;;;;;;;;5002501;28;20179;-84
2021/04/13 00:25:25;;;;;;;10.30;9.30;;;;;;;;;;5005181;28;20183;-86
2021/04/13 00:27:51;;;;;;;8.93;8.13;;;;;;;;;;5005676;28;20620;-84
2021/04/13 00:30:18;;;;;;;11.63;8.85;;;;;;;;;;5005370;28;20211;-83
2021/04/13 00:32:56;;;;;;;10.93;9.43;;;;;;;;;;5004372;28;20218;-85
2021/04/13 00:35:43;;;;;;;11.45;10.35;;;;;;;;;;4989314;28;20218;-85
2021/04/13 00:38:28;;;;;;;11.35;9.82;;;;;;;;;;5005561;28;20278;-86
2021/04/13 00:40:54;;;;;;;10.27;9.30;;;;;;;;;;5017990;28;20237;-84
2021/04/13 00:43:25;;;;;;;11.15;10.05;;;;;;;;;;5005802;28;20179;-85
2021/04/13 00:45:51;;;;;;;10.05;9.05;;;;;;;;;;5000293;28;20191;-85
2021/04/13 00:48:22;;;;;;;10.55;9.20;;;;;;;;;;4998350;28;20188;-84
2021/04/13 00:50:49;;;;;;;11.10;9.98;;;;;;;;;;5004063;28;20183;-84
2021/04/13 00:53:18;;;;;;;10.55;9.48;;;;;;;;;;5003890;28;20187;-85
2021/04/13 00:55:49;;;;;;;11.48;9.35;;;;;;;;;;5001998;28;20649;-85
2021/04/13 00:58:23;;;;;;;11.05;10.05;;;;;;;;;;5000086;28;20183;-86
2021/04/13 01:00:52;;;;;;;12.73;9.77;;;;;;;;;;5004919;28;20221;-85
2021/04/13 01:03:18;;;;;;;12.10;9.80;;;;;;;;;;5004769;28;20187;-86
2021/04/13 01:05:56;;;;;;;10.73;9.63;;;;;;;;;;5004209;28;20183;-85
2021/04/13 01:08:34;;;;;;;11.70;10.45;;;;;;;;;;5002999;28;20240;-86
2021/04/13 01:11:20;;;;;;;12.15;10.85;;;;;;;;;;5005440;28;20175;-85
2021/04/13 01:13:51;;;;;;;15.05;10.00;;;;;;;;;;5016557;28;20187;-85
2021/04/13 01:16:19;;;;;;;13.45;10.25;;;;;;;;;;5019137;28;20187;-85
2021/04/13 01:18:48;;;;;;;15.52;10.70;;;;;;;;;;5003078;28;20221;-85
2021/04/13 01:21:32;;;;;;;12.77;10.23;;;;;;;;;;5004497;28;20203;-83
2021/04/13 01:24:10;;;;;;;13.27;9.98;;;;;;;;;;5004905;28;20168;-84
2021/04/13 01:26:39;;;;;;;13.65;11.15;;;;;;;;;;5004364;28;20230;-85
2021/04/13 01:29:05;;;;;;;11.75;10.48;;;;;;;;;;5003235;28;20321;-84
2021/04/13 01:31:53;;;;;;;12.82;11.13;;;;;;;;;;5005119;28;20193;-86
2021/04/13 01:34:33;;;;;;;14.57;12.02;;;;;;;;;;5003468;28;20180;-85
2021/04/13 01:37:06;;;;;;;12.98;11.63;;;;;;;;;;5003157;28;20250;-84
2021/04/13 01:39:40;;;;;;;14.18;12.13;;;;;;;;;;4999616;28;20187;-84
2021/04/13 01:42:06;;;;;;;16.40;13.18;;;;;;;;;;4995354;28;20187;-85
2021/04/13 01:44:41;;;;;;;13.82;10.32;;;;;;;;;;5002991;28;20278;-84
2021/04/13 01:47:08;;;;;;;14.40;11.30;;;;;;;;;;5003829;28;20175;-84
2021/04/13 01:49:39;;;;;;;16.60;11.98;;;;;;;;;;5004750;28;20588;-85
2021/04/13 01:52:12;;;;;;;14.20;12.70;;;;;;;;;;5002514;28;20218;-84
2021/04/13 01:54:39;;;;;;;13.38;11.98;;;;;;;;;;5002695;28;20641;-84
2021/04/13 01:57:05;;;;;;;15.13;11.65;;;;;;;;;;5002096;28;20179;-84
2021/04/13 01:59:35;;;;;;;13.63;11.65;;;;;;;;;;5002939;28;20194;-84
2021/04/13 02:02:04;;;;;;;14.70;11.55;;;;;;;;;;5003170;28;20186;-85
2021/04/13 02:04:32;;;;;;;14.00;12.27;;;;;;;;;;5002177;28;20259;-85
2021/04/13 02:09:53;;;;;;;15.60;12.52;;;;;;;;;;5004106;28;20187;-85
2021/04/13 02:12:19;;;;;;;13.75;12.32;;;;;;;;;;5003748;28;20187;-85
2021/04/13 02:14:50;;;;;;;16.80;14.43;;;;;;;;;;5004562;28;20179;-85
2021/04/13 02:17:20;;;;;;;14.25;11.90;;;;;;;;;;4995348;28;20499;-85
2021/04/13 02:19:48;;;;;;;14.80;12.30;;;;;;;;;;5002511;28;20664;-84
2021/04/13 02:22:15;;;;;;;17.52;13.15;;;;;;;;;;5003788;28;20197;-85
2021/04/13 02:24:41;;;;;;;16.55;13.00;;;;;;;;;;5003790;28;20190;-85
2021/04/13 02:27:19;;;;;;;15.05;12.77;;;;;;;;;;5003701;28;20190;-84
2021/04/13 02:29:46;;;;;;;16.23;14.10;;;;;;;;;;5002310;28;20218;-85
2021/04/13 02:32:15;;;;;;;18.38;14.85;;;;;;;;;;5002997;28;20198;-84
2021/04/13 02:34:44;;;;;;;14.50;11.40;;;;;;;;;;5019811;28;20309;-84
2021/04/13 02:37:29;;;;;;;16.67;12.48;;;;;;;;;;5003171;28;20182;-85
2021/04/13 02:39:56;;;;;;;14.68;12.45;;;;;;;;;;5003447;28;20211;-84
2021/04/13 02:42:23;;;;;;;14.85;12.98;;;;;;;;;;5003470;28;20243;-84
2021/04/13 02:44:56;;;;;;;14.88;12.85;;;;;;;;;;5003616;28;20175;-84
2021/04/13 02:47:23;;;;;;;18.85;14.30;;;;;;;;;;5001512;28;20187;-83
2021/04/13 02:49:48;;;;;;;17.60;14.68;;;;;;;;;;5006058;28;20527;-84
2021/04/13 02:52:16;;;;;;;17.20;14.13;;;;;;;;;;5008124;28;20187;-84
2021/04/13 02:54:49;;;;;;;18.77;14.98;;;;;;;;;;5006187;28;20191;-84
2021/04/13 02:57:17;;;;;;;17.20;14.57;;;;;;;;;;5006983;28;20194;-84
2021/04/13 02:59:44;;;;;;;16.73;13.23;;;;;;;;;;5006085;28;20638;-84
2021/04/13 03:02:16;;;;;;;16.40;12.95;;;;;;;;;;5005271;28;20198;-84
2021/04/13 03:04:46;;;;;;;15.85;13.52;;;;;;;;;;5004498;28;20528;-84
2021/04/13 03:07:14;;;;;;;19.20;14.38;;;;;;;;;;5006928;28;20179;-84
2021/04/13 03:09:40;;;;;;;15.75;13.20;;;;;;;;;;5005918;28;20191;-84
2021/04/13 03:12:08;;;;;;;16.27;14.50;;;;;;;;;;5005477;28;20228;-84
2021/04/13 03:14:36;;;;;;;17.48;14.23;;;;;;;;;;5007288;28;20194;-84
2021/04/13 03:17:07;;;;;;;17.98;14.07;;;;;;;;;;5005574;28;20256;-84
2021/04/13 03:19:34;;;;;;;20.05;15.65;;;;;;;;;;5007725;28;20171;-83
2021/04/13 03:22:03;;;;;;;17.52;14.25;;;;;;;;;;5002191;28;20195;-84
2021/04/13 03:24:31;;;;;;;15.93;13.95;;;;;;;;;;5002028;28;20218;-84
2021/04/13 03:27:02;;;;;;;18.58;14.57;;;;;;;;;;5006402;28;20187;-84
2021/04/13 03:29:42;;;;;;;18.20;13.23;;;;;;;;;;5006269;28;20587;-84
2021/04/13 03:32:09;;;;;;;16.83;14.15;;;;;;;;;;5006259;28;20190;-84
2021/04/13 03:34:39;;;;;;;16.17;13.75;;;;;;;;;;5022510;28;20170;-84
2021/04/13 03:37:05;;;;;;;17.23;13.73;;;;;;;;;;5006345;28;20211;-83
2021/04/13 03:39:33;;;;;;;20.17;15.10;;;;;;;;;;5006359;28;20184;-84
2021/04/13 03:41:59;;;;;;;19.85;15.52;;;;;;;;;;5006608;28;20183;-84
2021/04/13 03:44:26;;;;;;;17.02;13.70;;;;;;;;;;5006396;28;20201;-84
2021/04/13 03:46:53;;;;;;;23.63;14.98;;;;;;;;;;5005395;28;20611;-84
2021/04/13 03:49:20;;;;;;;17.83;14.02;;;;;;;;;;5022025;28;20499;-84
2021/04/13 03:51:48;;;;;;;17.65;13.95;;;;;;;;;;5006087;28;20218;-83
2021/04/13 03:54:25;;;;;;;18.02;13.38;;;;;;;;;;5004473;28;20664;-83
2021/04/13 03:56:52;;;;;;;18.60;13.63;;;;;;;;;;5006056;28;20379;-83
2021/04/13 03:59:29;;;;;;;18.52;14.27;;;;;;;;;;5004532;28;20183;-84
2021/04/13 04:01:55;;;;;;;17.65;13.90;;;;;;;;;;5003672;28;20441;-83
2021/04/13 04:04:21;;;;;;;16.77;14.40;;;;;;;;;;5021755;28;20757;-83
2021/04/13 04:06:55;;;;;;;18.02;12.50;;;;;;;;;;5004544;28;20222;-83
2021/04/13 04:09:28;;;;;;;17.08;12.48;;;;;;;;;;5006201;28;20183;-83
2021/04/13 04:11:54;;;;;;;17.13;14.30;;;;;;;;;;5005553;28;20183;-84
2021/04/13 04:14:21;;;;;;;16.35;13.10;;;;;;;;;;5005592;28;20202;-83
2021/04/13 04:16:47;;;;;;;14.48;12.10;;;;;;;;;;5001450;28;20172;-83
2021/04/13 04:19:15;;;;;;;15.45;12.18;;;;;;;;;;5018141;28;20622;-83
2021/04/13 04:21:42;;;;;;;15.30;13.13;;;;;;;;;;5002145;28;20346;-83
2021/04/13 04:24:08;;;;;;;17.50;13.32;;;;;;;;;;5004515;28;20195;-84
2021/04/13 04:26:40;;;;;;;16.73;13.43;;;;;;;;;;5004022;28;20218;-83
2021/04/13 04:29:32;;;;;;;13.73;12.05;;;;;;;;;;5003796;28;20242;-84
2021/04/13 04:32:14;;;;;;;16.92;13.15;;;;;;;;;;5003256;28;20234;-83
2021/04/13 04:34:43;;;;;;;16.65;13.38;;;;;;;;;;5006339;28;20163;-83
2021/04/13 04:37:20;;;;;;;18.00;13.70;;;;;;;;;;5005407;28;20182;-83
2021/04/13 04:39:46;;;;;;;16.42;11.90;;;;;;;;;;5005452;28;20207;-84
2021/04/13 04:42:28;;;;;;;17.63;12.73;;;;;;;;;;5003277;28;20266;-84
2021/04/13 04:45:10;;;;;;;18.08;12.88;;;;;;;;;;5005353;28;20206;-84
2021/04/13 04:47:38;;;;;;;13.32;10.90;;;;;;;;;;5004713;28;20187;-84
2021/04/13 04:50:05;;;;;;;16.77;13.55;;;;;;;;;;5005205;28;20195;-83
2021/04/13 04:52:31;;;;;;;16.55;13.13;;;;;;;;;;5005762;28;20183;-83
2021/04/13 04:54:57;;;;;;;15.70;12.60;;;;;;;;;;5005277;28;20250;-83
2021/04/13 04:57:23;;;;;;;18.95;13.73;;;;;;;;;;5004288;28;20191;-83
2021/04/13 04:59:49;;;;;;;19.67;13.68;;;;;;;;;;5003088;28;20727;-84
2021/04/13 05:02:15;;;;;;;18.98;13.48;;;;;;;;;;5004594;28;20179;-83
2021/04/13 05:04:41;;;;;;;18.63;14.48;;;;;;;;;;5006282;28;20178;-84
2021/04/13 05:07:07;;;;;;;17.77;14.13;;;;;;;;;;5002672;28;20183;-83
2021/04/13 05:09:33;;;;;;;16.80;13.07;;;;;;;;;;5004793;28;20261;-84
2021/04/13 05:11:59;;;;;;;18.87;13.70;;;;;;;;;;5003945;28;20582;-83
2021/04/13 05:14:25;;;;;;;23.35;17.95;;;;;;;;;;5005144;28;20442;-84
2021/04/13 05:16:53;;;;;;;18.58;14.40;;;;;;;;;;5002426;28;20591;-84
2021/04/13 05:19:21;;;;;;;17.00;13.70;;;;;;;;;;5019728;28;20175;-86
2021/04/13 05:21:47;;;;;;;17.42;14.07;;;;;;;;;;4999444;28;20198;-85
2021/04/13 05:24:13;;;;;;;18.10;14.55;;;;;;;;;;4991937;28;20190;-85
2021/04/13 05:26:39;;;;;;;20.60;14.50;;;;;;;;;;4991400;28;20526;-86
2021/04/13 05:29:07;;;;;;;17.13;12.95;;;;;;;;;;5004403;28;20262;-84
2021/04/13 05:31:33;;;;;;;22.20;15.23;;;;;;;;;;5005288;28;20250;-85
2021/04/13 05:33:59;;;;;;;18.10;13.85;;;;;;;;;;5002362;28;20191;-85
2021/04/13 05:36:25;;;;;;;15.63;12.10;;;;;;;;;;5003374;28;20218;-85
2021/04/13 05:38:51;;;;;;;21.35;14.00;;;;;;;;;;5003488;28;20337;-85
2021/04/13 05:41:17;;;;;;;18.27;13.20;;;;;;;;;;5003049;28;20669;-86
2021/04/13 05:43:43;;;;;;;19.33;15.13;;;;;;;;;;4999930;28;20182;-85
2021/04/13 05:46:11;;;;;;;17.55;13.65;;;;;;;;;;5003920;28;20239;-85
2021/04/13 05:48:37;;;;;;;16.90;13.50;;;;;;;;;;5003940;28;20677;-85
2021/04/13 05:51:03;;;;;;;19.52;14.00;;;;;;;;;;5004181;28;20198;-83
2021/04/13 05:53:29;;;;;;;18.20;13.60;;;;;;;;;;5004294;28;20190;-83
2021/04/13 05:55:56;;;;;;;19.08;15.00;;;;;;;;;;5002516;28;20179;-83
2021/04/13 05:58:23;;;;;;;18.40;14.15;;;;;;;;;;5002424;28;20191;-82
2021/04/13 06:00:52;;;;;;;22.67;17.55;;;;;;;;;;5001720;28;20680;-81
2021/04/13 06:03:19;;;;;;;22.42;14.90;;;;;;;;;;5003381;28;20214;-82
2021/04/13 06:05:45;;;;;;;21.08;15.10;;;;;;;;;;5002390;28;20206;-81
2021/04/13 06:08:11;;;;;;;23.83;17.15;;;;;;;;;;4996612;28;20186;-81
2021/04/13 06:10:37;;;;;;;23.50;17.75;;;;;;;;;;5017993;28;20277;-81
2021/04/13 06:13:04;;;;;;;23.63;17.23;;;;;;;;;;5003930;28;20276;-82
2021/04/13 06:15:31;;;;;;;20.70;16.00;;;;;;;;;;5003485;28;20190;-82
2021/04/13 06:17:57;;;;;;;21.33;15.52;;;;;;;;;;5000376;28;20187;-82
2021/04/13 06:20:24;;;;;;;24.00;16.70;;;;;;;;;;5002181;28;20214;-82
2021/04/13 06:22:51;;;;;;;19.38;15.35;;;;;;;;;;5001612;28;20258;-83
2021/04/13 06:25:19;;;;;;;22.48;16.63;;;;;;;;;;5002685;28;20174;-86
2021/04/13 06:27:45;;;;;;;23.85;16.27;;;;;;;;;;5000967;28;20218;-83
2021/04/13 06:30:12;;;;;;;21.25;16.40;;;;;;;;;;4999582;28;20179;-84
2021/04/13 06:32:38;;;;;;;20.02;15.95;;;;;;;;;;5001400;28;20210;-83
2021/04/13 06:35:04;;;;;;;22.05;16.25;;;;;;;;;;5003815;28;20194;-85
2021/04/13 06:37:30;;;;;;;24.55;17.55;;;;;;;;;;5018566;28;20182;-84
2021/04/13 06:39:56;;;;;;;24.98;18.35;;;;;;;;;;5003366;28;20238;-83
2021/04/13 06:42:30;;;;;;;21.88;16.95;;;;;;;;;;5003074;28;20229;-83
2021/04/13 06:44:56;;;;;;;20.67;16.80;;;;;;;;;;5002822;28;20202;-81
2021/04/13 06:47:25;;;;;;;22.90;17.80;;;;;;;;;;5001360;28;20183;-87
2021/04/13 06:50:30;;;;;;;23.17;16.85;;;;;;;;;;5002332;28;20430;-84
2021/04/13 06:53:15;;;;;;;23.58;18.23;;;;;;;;;;4976296;28;20191;-84
2021/04/13 06:55:41;;;;;;;23.45;16.58;;;;;;;;;;4971576;28;20756;-84
2021/04/13 06:58:15;;;;;;;22.00;17.40;;;;;;;;;;4979370;28;20283;-84
2021/04/13 07:01:03;;;;;;;21.58;16.60;;;;;;;;;;4964849;28;20474;-84
2021/04/13 07:03:49;;;;;;;25.33;16.73;;;;;;;;;;4977340;28;20202;-84
2021/04/13 07:06:18;;;;;;;24.40;18.05;;;;;;;;;;4976974;28;20306;-82
2021/04/13 07:08:48;;;;;;;23.67;16.98;;;;;;;;;;4977033;28;20188;-84
2021/04/13 07:11:18;;;;;;;25.30;18.48;;;;;;;;;;4981215;28;20215;-83
2021/04/13 07:13:50;;;;;;;21.98;15.05;;;;;;;;;;4964434;28;20180;-84
2021/04/13 07:16:23;;;;;;;23.95;17.17;;;;;;;;;;4964546;28;20203;-83
2021/04/13 07:19:00;;;;;;;19.38;15.60;;;;;;;;;;4958154;28;20286;-81
2021/04/13 07:21:30;;;;;;;21.27;15.63;;;;;;;;;;4975981;28;20234;-84
2021/04/13 07:24:04;;;;;;;19.27;15.05;;;;;;;;;;4993893;28;20261;-87
2021/04/13 07:26:31;;;;;;;21.55;16.17;;;;;;;;;;5014725;28;20190;-83
2021/04/13 07:29:12;;;;;;;18.88;15.70;;;;;;;;;;4999875;28;20215;-79
2021/04/13 07:31:58;;;;;;;22.08;15.27;;;;;;;;;;5001590;28;20187;-81
2021/04/13 07:34:24;;;;;;;18.58;14.40;;;;;;;;;;5003065;28;20246;-81
2021/04/13 07:37:02;;;;;;;20.70;15.52;;;;;;;;;;5002489;28;20191;-82
2021/04/13 07:39:29;;;;;;;22.05;16.45;;;;;;;;;;5005383;28;20187;-80
2021/04/13 07:42:18;;;;;;;19.38;14.82;;;;;;;;;;5004097;28;20175;-79
2021/04/13 07:44:47;;;;;;;18.40;15.20;;;;;;;;;;5005166;28;20190;-81
2021/04/13 07:47:13;;;;;;;20.77;16.30;;;;;;;;;;5004985;28;20266;-80
2021/04/13 07:49:43;;;;;;;22.38;16.15;;;;;;;;;;5006360;28;20183;-80
2021/04/13 07:52:15;;;;;;;21.33;14.32;;;;;;;;;;5005391;28;20187;-79
2021/04/13 07:55:01;;;;;;;19.52;14.10;;;;;;;;;;5004113;28;20856;-80
2021/04/13 07:57:29;;;;;;;17.63;14.00;;;;;;;;;;5020367;28;20230;-80
2021/04/13 08:00:08;;;;;;;16.52;10.57;;;;;;;;;;5005044;28;20207;-81
2021/04/13 08:02:34;;;;;;;13.70;10.55;;;;;;;;;;5002783;28;20202;-79
2021/04/13 08:05:00;;;;;;;11.50;8.80;;;;;;;;;;5005847;28;20222;-80
2021/04/13 08:07:37;;;;;;;14.18;10.95;;;;;;;;;;5005642;28;20183;-79
2021/04/13 08:10:22;;;;;;;9.98;8.23;;;;;;;;;;5005117;28;20193;-81
2021/04/13 08:12:58;;;;;;;13.05;8.45;;;;;;;;;;5005174;28;20250;-83
2021/04/13 08:15:45;;;;;;;8.18;7.03;;;;;;;;;;5003706;28;20175;-80
2021/04/13 08:18:15;;;;;;;11.10;8.35;;;;;;;;;;4997228;28;20190;-82
2021/04/13 08:20:43;;;;;;;9.18;7.85;;;;;;;;;;5004929;28;20198;-79
2021/04/13 08:23:24;;;;;;;11.73;8.60;;;;;;;;;;5004597;28;20179;-82
2021/04/13 08:25:55;;;;;;;10.48;7.82;;;;;;;;;;5002842;28;20202;-79
2021/04/13 08:28:36;;;;;;;8.85;7.95;;;;;;;;;;5019873;28;20215;-82
2021/04/13 08:34:22;;;;;;;9.07;7.30;;;;;;;;;;5004650;28;20190;-81
2021/04/13 08:37:05;;;;;;;8.75;7.60;;;;;;;;;;5004864;28;20205;-80
2021/04/13 08:39:40;;;;;;;9.18;8.27;;;;;;;;;;5003397;28;20187;-87
2021/04/13 08:42:18;;;;;;;10.75;7.85;;;;;;;;;;5003979;28;20181;-81
2021/04/13 08:44:48;;;;;;;9.60;8.50;;;;;;;;;;5004310;28;20434;-77
2021/04/13 08:47:20;;;;;;;12.65;7.40;;;;;;;;;;5006351;28;20190;-82
2021/04/13 08:49:53;;;;;;;9.85;8.05;;;;;;;;;;5016118;28;20175;-81
2021/04/13 08:52:20;;;;;;;9.10;8.10;;;;;;;;;;5002933;28;22036;-81
2021/04/13 08:54:48;;;;;;;9.88;8.98;;;;;;;;;;5019157;28;20190;-83
2021/04/13 08:57:21;;;;;;;9.07;8.18;;;;;;;;;;5002463;28;20179;-82
2021/04/13 08:59:51;;;;;;;11.20;7.55;;;;;;;;;;5002829;28;20190;-86
2021/04/13 09:02:27;;;;;;;13.43;8.60;;;;;;;;;;4988108;28;20183;-82
2021/04/13 09:05:02;;;;;;;10.82;7.95;;;;;;;;;;5003375;28;20249;-85
2021/04/13 09:07:30;;;;;;;11.90;7.15;;;;;;;;;;5001612;28;20695;-84
2021/04/13 09:10:13;;;;;;;9.82;8.55;;;;;;;;;;5003406;28;20719;-86
2021/04/13 09:12:42;;;;;;;8.32;7.10;;;;;;;;;;5005620;28;20202;-83
2021/04/13 09:15:22;;;;;;;8.73;7.50;;;;;;;;;;5003024;28;20191;-84
2021/04/13 09:17:57;;;;;;;11.60;8.48;;;;;;;;;;5003301;28;20202;-85
2021/04/13 09:20:24;;;;;;;10.60;7.78;;;;;;;;;;5019505;28;20202;-83
2021/04/13 09:22:55;;;;;;;10.15;7.20;;;;;;;;;;5003326;28;20260;-80
2021/04/13 09:25:31;;;;;;;10.20;5.82;;;;;;;;;;5003297;28;20186;-85
2021/04/13 09:28:15;;;;;;;12.88;7.07;;;;;;;;;;5001908;28;20576;-86
2021/04/13 09:30:45;;;;;;;8.80;6.72;;;;;;;;;;5000151;28;20221;-83
2021/04/13 09:33:12;;;;;;;7.68;6.00;;;;;;;;;;4995092;28;20191;-80
2021/04/13 09:35:50;;;;;;;6.72;6.05;;;;;;;;;;5002822;28;20201;-86
2021/04/13 09:38:27;;;;;;;8.07;6.22;;;;;;;;;;5002946;28;20347;-86
2021/04/13 09:40:53;;;;;;;8.88;5.82;;;;;;;;;;4993508;28;20209;-89
2021/04/13 09:43:25;;;;;;;10.77;6.53;;;;;;;;;;5019393;28;20179;-88
2021/04/13 09:46:01;;;;;;;6.88;6.00;;;;;;;;;;5002480;28;20557;-82
2021/04/13 09:48:30;;;;;;;12.02;6.93;;;;;;;;;;4996016;28;20193;-88
2021/04/13 09:51:12;;;;;;;7.68;6.70;;;;;;;;;;4994488;28;20191;-86
2021/04/13 09:53:57;;;;;;;6.75;6.03;;;;;;;;;;5001231;28;20183;-85
2021/04/13 09:56:38;;;;;;;9.07;6.40;;;;;;;;;;4992164;28;20223;-85
2021/04/13 09:59:23;;;;;;;8.15;6.70;;;;;;;;;;5000215;28;20171;-85
2021/04/13 10:01:59;;;;;;;9.13;6.28;;;;;;;;;;5001582;28;20211;-80
2021/04/13 10:04:25;;;;;;;8.25;6.97;;;;;;;;;;5002431;28;20566;-78
2021/04/13 10:07:24;;;;;;;7.10;6.33;;;;;;;;;;5002470;28;20194;-84
2021/04/13 10:09:50;;;;;;;11.63;6.80;;;;;;;;;;4977469;28;20447;-86
2021/04/13 10:12:19;;;;;;;6.53;5.25;;;;;;;;;;4976630;28;20263;-85
2021/04/13 10:14:45;;;;;;;6.90;6.20;;;;;;;;;;4977354;28;20192;-81
2021/04/13 10:17:23;;;;;;;7.60;6.20;;;;;;;;;;4980298;28;20247;-83
2021/04/13 10:20:08;;;;;;;6.28;5.68;;;;;;;;;;4977734;28;20419;-81
2021/04/13 10:22:56;;;;;;;7.00;6.30;;;;;;;;;;4977387;28;20172;-89
2021/04/13 10:25:40;;;;;;;7.28;5.53;;;;;;;;;;4976138;28;20223;-83
2021/04/13 10:28:35;;;;;;;6.28;5.68;;;;;;;;;;4965382;28;20232;-85
2021/04/13 10:31:01;;;;;;;7.60;5.80;;;;;;;;;;4953112;28;20659;-84
2021/04/13 10:33:42;;;;;;;7.50;5.50;;;;;;;;;;4959986;28;20207;-87
2021/04/13 10:36:16;;;;;;;7.72;6.07;;;;;;;;;;4980692;28;20522;-83
2021/04/13 10:39:04;;;;;;;6.25;5.65;;;;;;;;;;4980636;28;20231;-82
2021/04/13 10:41:36;;;;;;;7.88;6.63;;;;;;;;;;4979310;28;20242;-84
2021/04/13 10:44:01;;;;;;;6.40;5.55;;;;;;;;;;4962699;28;20191;-81
2021/04/13 10:46:31;;;;;;;7.00;6.30;;;;;;;;;;5016005;28;20202;-84
2021/04/13 10:49:07;;;;;;;10.43;5.93;;;;;;;;;;5001113;28;20426;-85
2021/04/13 10:51:52;;;;;;;8.00;6.65;;;;;;;;;;5001436;28;20210;-81
2021/04/13 10:54:42;;;;;;;7.05;6.32;;;;;;;;;;5000833;28;20269;-86
2021/04/13 10:57:20;;;;;;;7.63;5.95;;;;;;;;;;5000839;28;20179;-84
2021/04/13 11:00:05;;;;;;;8.98;6.88;;;;;;;;;;4999479;28;20210;-83
2021/04/13 11:02:50;;;;;;;6.88;6.22;;;;;;;;;;4989240;28;20731;-81
2021/04/13 11:05:27;;;;;;;8.05;6.45;;;;;;;;;;4997193;28;20183;-84
2021/04/13 11:07:59;;;;;;;9.02;7.45;;;;;;;;;;5003252;28;20234;-85
2021/04/13 11:10:25;;;;;;;8.10;7.15;;;;;;;;;;5016714;28;20198;-84
2021/04/13 11:13:07;;;;;;;9.20;7.17;;;;;;;;;;5003633;28;20187;-85
2021/04/13 11:16:08;;;;;;;9.10;7.40;;;;;;;;;;5004844;28;20885;-84
2021/04/13 11:18:43;;;;;;;9.52;7.57;;;;;;;;;;5000139;28;20195;-87
2021/04/13 11:21:22;;;;;;;6.18;5.57;;;;;;;;;;5002985;28;20237;-84
2021/04/13 11:24:07;;;;;;;6.50;5.80;;;;;;;;;;4999995;28;20198;-87
2021/04/13 11:26:38;;;;;;;7.13;6.47;;;;;;;;;;5002522;28;20211;-84
2021/04/13 11:29:30;;;;;;;6.72;5.57;;;;;;;;;;5020518;28;20229;-89
2021/04/13 11:32:02;;;;;;;9.10;6.10;;;;;;;;;;5003039;28;20624;-87
2021/04/13 11:34:39;;;;;;;5.28;4.78;;;;;;;;;;5010813;28;20214;-88
2021/04/13 11:37:05;;;;;;;5.75;4.90;;;;;;;;;;5006807;28;20187;-84
2021/04/13 11:39:31;;;;;;;6.55;5.88;;;;;;;;;;5006456;28;20308;-89
2021/04/13 11:42:14;;;;;;;6.67;5.50;;;;;;;;;;4997266;28;20209;-85
2021/04/13 11:44:52;;;;;;;7.95;6.40;;;;;;;;;;5003663;28;20446;-86
2021/04/13 11:47:22;;;;;;;5.18;4.60;;;;;;;;;;4998959;28;20758;-86
2021/04/13 11:49:54;;;;;;;10.43;5.95;;;;;;;;;;5004288;28;20187;-85
2021/04/13 11:52:33;;;;;;;7.25;6.35;;;;;;;;;;5006098;28;20211;-87
2021/04/13 11:54:59;;;;;;;7.07;6.35;;;;;;;;;;5004558;28;20187;-89
2021/04/13 11:57:26;;;;;;;7.30;5.55;;;;;;;;;;5003117;28;20195;-83
2021/04/13 12:00:10;;;;;;;7.75;6.30;;;;;;;;;;5005832;28;20183;-89
2021/04/13 12:02:42;;;;;;;6.80;6.10;;;;;;;;;;5006209;28;20278;-86
2021/04/13 12:05:23;;;;;;;8.27;5.50;;;;;;;;;;5005231;28;20203;-87
2021/04/13 12:07:50;;;;;;;6.03;5.43;;;;;;;;;;5002030;28;20178;-82
2021/04/13 12:10:31;;;;;;;7.15;5.35;;;;;;;;;;5022023;28;20187;-85
2021/04/13 12:13:03;;;;;;;5.57;4.80;;;;;;;;;;5002814;28;20619;-83
2021/04/13 12:15:36;;;;;;;5.88;5.28;;;;;;;;;;5008097;28;20264;-82
2021/04/13 12:18:21;;;;;;;6.68;4.65;;;;;;;;;;5007907;28;20214;-82
2021/04/13 12:20:47;;;;;;;6.47;5.13;;;;;;;;;;5002732;28;20207;-87
2021/04/13 12:23:14;;;;;;;6.60;4.50;;;;;;;;;;5010559;28;20223;-86
2021/04/13 12:25:44;;;;;;;4.53;4.05;;;;;;;;;;5005004;28;20186;-84
2021/04/13 12:28:12;;;;;;;7.15;5.72;;;;;;;;;;5004830;28;20234;-85
2021/04/13 12:30:44;;;;;;;4.43;4.03;;;;;;;;;;5002655;28;20186;-86
2021/04/13 12:33:11;;;;;;;6.68;6.03;;;;;;;;;;5002629;28;20195;-91
2021/04/13 12:35:47;;;;;;;5.72;5.13;;;;;;;;;;5003646;28;20201;-88
2021/04/13 12:38:31;;;;;;;7.45;5.93;;;;;;;;;;5019866;28;20190;-88
2021/04/13 12:41:16;;;;;;;5.93;4.88;;;;;;;;;;5003320;28;20752;-88
2021/04/13 12:43:43;;;;;;;5.88;4.78;;;;;;;;;;5008136;28;20187;-89
2021/04/13 12:46:20;;;;;;;4.90;4.40;;;;;;;;;;5004457;28;20249;-88
2021/04/13 12:48:48;;;;;;;4.95;3.72;;;;;;;;;;5002737;28;20213;-87
2021/04/13 12:51:35;;;;;;;3.83;3.50;;;;;;;;;;5011019;28;20183;-82
2021/04/13 12:54:10;;;;;;;5.28;3.88;;;;;;;;;;5003912;28;20191;-89
2021/04/13 12:56:36;;;;;;;3.88;3.47;;;;;;;;;;5004616;28;20214;-87
2021/04/13 12:59:07;;;;;;;4.10;3.80;;;;;;;;;;5003226;28;20628;-84
2021/04/13 13:01:36;;;;;;;4.17;3.80;;;;;;;;;;5019677;28;20207;-84
2021/04/13 13:04:10;;;;;;;3.73;3.43;;;;;;;;;;5003908;28;20481;-84
2021/04/13 13:06:38;;;;;;;4.43;4.03;;;;;;;;;;5003025;28;20424;-83
2021/04/13 13:09:08;;;;;;;5.23;4.20;;;;;;;;;;4999539;28;20429;-83
2021/04/13 13:11:34;;;;;;;5.10;4.40;;;;;;;;;;5002969;28;20405;-84
2021/04/13 13:14:02;;;;;;;4.60;4.13;;;;;;;;;;4999107;28;20411;-88
2021/04/13 13:16:57;;;;;;;4.57;4.13;;;;;;;;;;5005762;28;20513;-86
2021/04/13 13:19:37;;;;;;;4.70;4.30;;;;;;;;;;5001136;28;20848;-83
2021/04/13 13:22:12;;;;;;;5.53;4.50;;;;;;;;;;5004481;28;20863;-81
2021/04/13 13:24:38;;;;;;;4.05;3.75;;;;;;;;;;4999809;28;20456;-81
2021/04/13 13:27:15;;;;;;;4.87;3.80;;;;;;;;;;4998796;28;20179;-81
2021/04/13 13:29:41;;;;;;;4.00;3.60;;;;;;;;;;5000570;28;20476;-84
2021/04/13 13:32:08;;;;;;;3.75;3.40;;;;;;;;;;4999011;28;20470;-82
2021/04/13 13:34:34;;;;;;;4.93;4.03;;;;;;;;;;4998028;28;20630;-79
2021/04/13 13:37:02;;;;;;;4.90;4.40;;;;;;;;;;5002666;28;20179;-84
2021/04/13 13:39:30;;;;;;;4.10;3.70;;;;;;;;;;5002800;28;20512;-78
2021/04/13 13:42:00;;;;;;;4.75;3.58;;;;;;;;;;5008686;28;20606;-84
2021/04/13 13:44:26;;;;;;;4.50;4.18;;;;;;;;;;4991388;28;20217;-82
2021/04/13 13:47:11;;;;;;;4.37;3.97;;;;;;;;;;5002166;28;20256;-82
2021/04/13 13:49:37;;;;;;;4.80;3.88;;;;;;;;;;4994601;28;20408;-87
2021/04/13 13:52:05;;;;;;;6.30;4.37;;;;;;;;;;4999441;28;20241;-82
2021/04/13 13:54:32;;;;;;;5.03;4.25;;;;;;;;;;4993418;28;20975;-83
2021/04/13 13:57:08;;;;;;;4.97;4.43;;;;;;;;;;5013738;28;20694;-82
2021/04/13 13:59:41;;;;;;;5.32;4.82;;;;;;;;;;5001594;28;20271;-85
2021/04/13 14:02:21;;;;;;;6.05;4.93;;;;;;;;;;4992134;28;20272;-80
2021/04/13 14:04:48;;;;;;;4.72;4.32;;;;;;;;;;4997202;28;20211;-80
2021/04/13 14:07:25;;;;;;;4.97;3.63;;;;;;;;;;4995358;28;20183;-79
2021/04/13 14:10:07;;;;;;;6.25;4.47;;;;;;;;;;4995322;28;20190;-83
2021/04/13 14:12:34;;;;;;;3.95;3.63;;;;;;;;;;4998477;28;20241;-80
2021/04/13 14:15:00;;;;;;;4.88;3.30;;;;;;;;;;5001046;28;20272;-79
2021/04/13 14:17:33;;;;;;;3.78;3.45;;;;;;;;;;5001242;28;20194;-79
2021/04/13 14:20:07;;;;;;;4.70;4.30;;;;;;;;;;4992472;28;20663;-81
2021/04/13 14:22:33;;;;;;;4.28;3.60;;;;;;;;;;5002810;28;20185;-85
2021/04/13 14:25:02;;;;;;;4.55;3.22;;;;;;;;;;4995024;28;20204;-86
2021/04/13 14:27:29;;;;;;;9.30;3.47;;;;;;;;;;4997264;28;20183;-86
2021/04/13 14:29:56;;;;;;;4.22;3.83;;;;;;;;;;5005508;28;20218;-85
2021/04/13 14:32:23;;;;;;;3.78;3.45;;;;;;;;;;5002605;28;20210;-84
2021/04/13 14:34:49;;;;;;;3.85;3.38;;;;;;;;;;4991880;28;20227;-82
2021/04/13 14:37:15;;;;;;;4.57;4.20;;;;;;;;;;5003252;28;20679;-83
2021/04/13 14:39:49;;;;;;;5.47;4.13;;;;;;;;;;4998598;28;20462;-91
2021/04/13 14:42:16;;;;;;;4.25;3.78;;;;;;;;;;4998960;28;20270;-82
2021/04/13 14:44:42;;;;;;;3.65;3.35;;;;;;;;;;4999922;28;20217;-89
2021/04/13 14:47:11;;;;;;;4.68;4.18;;;;;;;;;;5004563;28;20192;-86
2021/04/13 14:49:37;;;;;;;4.57;4.10;;;;;;;;;;5002708;28;20187;-86
2021/04/13 14:52:03;;;;;;;7.13;4.88;;;;;;;;;;5017288;28;20186;-83
2021/04/13 14:54:29;;;;;;;5.15;3.95;;;;;;;;;;5022035;28;20215;-85
2021/04/13 14:56:55;;;;;;;4.18;3.63;;;;;;;;;;5005140;28;20406;-87
2021/04/13 14:59:22;;;;;;;3.90;3.42;;;;;;;;;;5005443;28;20538;-83
2021/04/13 15:01:48;;;;;;;3.38;3.05;;;;;;;;;;5019459;28;20321;-84